Terminal Aerodrome Forecast
Issued by NWS

Home | Current Version | Previous Version | Text Only | Print | Product List | Glossary On
Versions: 1 2 3 4 5 6 7 8 9 10 11 12 13 14 15 16 17 18 19 20
737
FTUS43 KJKL 242320
TAFSJS
TAF
KSJS 242320Z 2500/2524 15010G16KT P6SM VCSH SCT015 SCT030
     FM250300 23005KT P6SM VCSH FEW008 OVC015
     FM251000 23005KT P6SM SHRA BKN008
     FM251500 23008KT 5SM SHRA OVC008=

USA.gov is the U.S. government's official web portal to all federal, state and local government web resources and services.